Time;durP1;ratioP1;P1;durP2;ratioP2;P2;SDS_P1;SDS_P2;PMS_P1;PMS_P2;Temp;Humidity;BMP_temperature;BMP_pressure;BME280_temperature;BME280_humidity;BME280_pressure;Samples;Min_cycle;Max_cycle;Signal;HPM_P1;HPM_P2
2023/06/01 00:00:49;;;;;;;6.00;2.92;;;;;;;13.43;81.75;102213.19;7353851;19;20041;-66
2023/06/01 00:03:16;;;;;;;8.32;3.08;;;;;;;13.34;81.96;102201.63;7352658;19;20074;-65
2023/06/01 00:05:44;;;;;;;9.60;4.22;;;;;;;13.39;82.57;102207.34;7355519;19;20026;-66
2023/06/01 00:08:11;;;;;;;8.15;3.50;;;;;;;13.42;83.39;102200.94;7354154;19;20019;-66
2023/06/01 00:10:38;;;;;;;7.05;3.30;;;;;;;13.37;82.27;102209.28;7349386;19;20308;-65
2023/06/01 00:13:05;;;;;;;9.38;3.17;;;;;;;13.47;82.58;102202.19;7354098;19;20034;-66
2023/06/01 00:15:32;;;;;;;6.97;2.60;;;;;;;13.50;82.07;102198.44;7355051;19;20024;-65
2023/06/01 00:18:00;;;;;;;6.05;2.92;;;;;;;13.46;81.25;102205.00;7351055;19;20022;-71
2023/06/01 00:20:28;;;;;;;6.13;3.20;;;;;;;13.48;81.58;102201.22;7357952;19;21628;-67
2023/06/01 00:22:58;;;;;;;6.38;3.30;;;;;;;13.48;81.09;102203.03;7355749;19;20014;-66
2023/06/01 00:25:25;;;;;;;8.50;2.95;;;;;;;13.44;81.92;102205.13;7355158;19;20129;-66
2023/06/01 00:27:52;;;;;;;9.57;3.85;;;;;;;13.44;81.56;102193.72;7354831;19;20018;-65
2023/06/01 00:30:20;;;;;;;9.13;3.17;;;;;;;13.41;81.79;102192.16;7354025;19;20090;-65
2023/06/01 00:32:47;;;;;;;11.88;3.45;;;;;;;13.41;81.93;102191.34;7362270;19;20487;-65
2023/06/01 00:35:14;;;;;;;9.35;3.95;;;;;;;13.31;82.07;102199.25;7354767;19;20042;-64
2023/06/01 00:37:41;;;;;;;6.25;3.33;;;;;;;13.24;82.10;102203.41;7351717;19;20029;-65
2023/06/01 00:40:10;;;;;;;6.68;3.33;;;;;;;13.26;82.19;102199.66;7356995;19;20023;-65
2023/06/01 00:42:37;;;;;;;8.65;3.85;;;;;;;13.22;82.21;102190.31;7354133;19;20014;-65
2023/06/01 00:45:05;;;;;;;8.60;3.33;;;;;;;13.18;82.63;102196.03;7354738;19;20010;-65
2023/06/01 00:47:40;;;;;;;9.27;3.80;;;;;;;13.18;82.55;102191.56;7349661;19;20022;-67
2023/06/01 00:50:11;;;;;;;7.22;3.60;;;;;;;13.26;82.97;102193.53;7352721;19;20649;-66
2023/06/01 00:52:40;;;;;;;11.15;4.70;;;;;;;13.22;82.56;102189.50;7355733;19;20021;-65
2023/06/01 00:55:08;;;;;;;10.18;4.25;;;;;;;13.20;83.49;102194.09;7355583;19;20011;-65
2023/06/01 00:57:36;;;;;;;8.55;4.13;;;;;;;13.19;82.55;102187.97;7355590;19;20015;-66
2023/06/01 01:00:09;;;;;;;11.63;5.22;;;;;;;13.20;82.86;102191.44;7361410;19;20688;-65
2023/06/01 01:02:39;;;;;;;10.55;4.15;;;;;;;13.21;82.51;102193.94;7355888;19;20026;-65
2023/06/01 01:07:49;;;;;;;11.15;4.32;;;;;;;13.24;82.58;102171.69;7360626;19;20010;-66
2023/06/01 01:10:25;;;;;;;9.15;4.55;;;;;;;13.20;82.92;102186.16;7359379;19;20011;-65
2023/06/01 01:13:01;;;;;;;8.93;4.68;;;;;;;13.17;83.48;102186.41;7360352;19;20038;-66
2023/06/01 01:15:38;;;;;;;12.98;5.68;;;;;;;13.21;82.85;102178.06;7358272;19;20482;-66
2023/06/01 01:18:13;;;;;;;14.10;6.22;;;;;;;13.22;82.75;102184.19;7356198;19;20014;-66
2023/06/01 01:20:44;;;;;;;11.75;5.55;;;;;;;13.25;82.65;102190.06;7360625;19;21626;-66
2023/06/01 01:25:49;;;;;;;11.55;5.55;;;;;;;13.27;82.28;102197.84;7360661;19;20377;-66
2023/06/01 01:28:22;;;;;;;11.93;4.78;;;;;;;13.16;82.54;102187.38;7359475;19;20378;-66
2023/06/01 01:30:53;;;;;;;12.18;4.93;;;;;;;13.07;82.74;102188.16;7355469;19;20461;-66
2023/06/01 01:33:22;;;;;;;9.43;3.83;;;;;;;13.00;83.03;102187.91;7358708;19;20018;-66
2023/06/01 01:35:50;;;;;;;10.02;4.53;;;;;;;12.99;83.11;102185.38;7360256;19;20030;-65
2023/06/01 01:38:18;;;;;;;12.13;4.47;;;;;;;12.90;83.56;102192.28;7358829;19;20051;-66
2023/06/01 01:40:45;;;;;;;11.63;4.70;;;;;;;12.96;83.65;102188.28;7360358;19;20082;-65
2023/06/01 01:43:13;;;;;;;12.43;5.72;;;;;;;13.00;84.04;102182.59;7360119;19;20015;-66
2023/06/01 01:45:40;;;;;;;12.43;5.35;;;;;;;13.02;84.32;102191.22;7357096;19;20478;-66
2023/06/01 01:48:17;;;;;;;13.98;5.40;;;;;;;13.00;82.50;102184.41;7356451;19;20086;-66
2023/06/01 01:50:52;;;;;;;12.43;5.10;;;;;;;12.99;82.44;102185.38;7360168;19;20044;-65
2023/06/01 01:53:22;;;;;;;11.55;5.40;;;;;;;12.90;82.74;102188.84;7359868;19;20501;-66
2023/06/01 01:55:50;;;;;;;10.52;4.90;;;;;;;12.90;82.94;102179.06;7359463;19;20010;-65
2023/06/01 01:58:18;;;;;;;9.27;4.80;;;;;;;12.89;83.17;102180.06;7358907;19;20681;-65
2023/06/01 02:00:46;;;;;;;12.75;5.15;;;;;;;12.90;83.26;102179.06;7358765;19;20039;-65
2023/06/01 02:03:16;;;;;;;9.52;4.72;;;;;;;12.90;82.97;102180.91;7356547;19;20477;-65
2023/06/01 02:05:43;;;;;;;7.28;5.00;;;;;;;12.92;83.07;102177.16;7359862;19;20018;-65
2023/06/01 02:08:11;;;;;;;9.18;4.45;;;;;;;12.91;83.55;102175.47;7358455;19;20029;-65
2023/06/01 02:10:38;;;;;;;11.43;5.25;;;;;;;12.96;83.72;102180.34;7359588;19;20046;-65
2023/06/01 02:13:05;;;;;;;11.52;5.00;;;;;;;12.97;83.11;102189.94;7357675;19;20019;-66
2023/06/01 02:15:32;;;;;;;8.73;3.90;;;;;;;12.97;82.04;102182.03;7356967;19;20014;-65
2023/06/01 02:18:00;;;;;;;9.73;3.97;;;;;;;12.96;82.01;102180.34;7355067;19;20018;-66
2023/06/01 02:20:27;;;;;;;8.98;4.10;;;;;;;12.97;81.69;102171.47;7358793;19;20022;-66
2023/06/01 02:22:55;;;;;;;10.13;4.75;;;;;;;13.01;83.26;102176.31;7358499;19;20014;-65
2023/06/01 02:25:22;;;;;;;10.25;4.63;;;;;;;13.01;83.32;102175.50;7364217;19;20018;-65
2023/06/01 02:27:49;;;;;;;8.45;4.88;;;;;;;13.01;81.37;102171.03;7360166;19;20479;-66
2023/06/01 02:30:17;;;;;;;11.75;4.88;;;;;;;12.99;81.03;102165.09;7356675;19;20015;-66
2023/06/01 02:32:45;;;;;;;8.65;5.00;;;;;;;12.95;81.19;102165.50;7354695;19;20675;-66
2023/06/01 02:35:13;;;;;;;10.30;5.00;;;;;;;12.90;81.33;102167.69;7356156;19;20098;-65
2023/06/01 02:37:40;;;;;;;10.63;6.15;;;;;;;12.70;82.30;102166.78;7354144;19;20022;-65
2023/06/01 02:40:11;;;;;;;11.27;5.65;;;;;;;12.64;82.82;102164.69;7356696;19;20588;-65
2023/06/01 02:42:38;;;;;;;11.07;5.15;;;;;;;12.54;83.13;102163.81;7357110;19;20893;-65
2023/06/01 02:45:07;;;;;;;15.05;6.32;;;;;;;12.33;84.00;102169.13;7358038;19;20449;-66
2023/06/01 02:47:35;;;;;;;11.60;5.93;;;;;;;12.39;84.42;102168.59;7354758;19;20348;-65
2023/06/01 02:50:04;;;;;;;11.40;5.93;;;;;;;12.37;83.92;102173.16;7356322;19;20025;-65
2023/06/01 02:52:32;;;;;;;12.82;6.13;;;;;;;12.34;84.15;102161.06;7357554;19;20368;-67
2023/06/01 02:54:59;;;;;;;15.68;6.50;;;;;;;12.36;84.20;102158.28;7356205;19;20518;-66
2023/06/01 02:57:26;;;;;;;13.63;5.85;;;;;;;12.33;84.50;102162.03;7356959;19;20042;-65
2023/06/01 02:59:53;;;;;;;14.10;6.38;;;;;;;12.18;84.52;102157.25;7356460;19;20015;-66
2023/06/01 03:02:21;;;;;;;11.57;5.97;;;;;;;12.25;84.73;102161.00;7353893;19;20018;-66
2023/06/01 03:04:49;;;;;;;12.43;5.95;;;;;;;12.29;85.01;102150.06;7357456;19;20029;-65
2023/06/01 03:07:16;;;;;;;9.98;5.35;;;;;;;12.35;84.48;102151.34;7357337;19;20036;-66
2023/06/01 03:09:43;;;;;;;12.65;5.88;;;;;;;12.40;84.19;102144.69;7356373;19;20014;-65
2023/06/01 03:12:10;;;;;;;13.27;5.90;;;;;;;12.40;83.98;102149.13;7357775;19;20039;-65
2023/06/01 03:14:38;;;;;;;13.63;6.28;;;;;;;12.42;83.75;102139.28;7356672;19;20022;-65
2023/06/01 03:17:06;;;;;;;12.25;6.40;;;;;;;12.33;84.36;102146.22;7352487;19;20014;-66
2023/06/01 03:19:33;;;;;;;13.30;6.55;;;;;;;12.33;84.43;102148.00;7351490;19;20263;-65
2023/06/01 03:22:00;;;;;;;12.20;5.50;;;;;;;12.33;83.78;102140.09;7356967;19;20018;-65
2023/06/01 03:24:28;;;;;;;10.20;5.45;;;;;;;12.36;83.83;102142.47;7355333;19;20036;-65
2023/06/01 03:26:55;;;;;;;12.27;4.78;;;;;;;12.34;83.61;102139.13;7357434;19;20010;-65
2023/06/01 03:29:23;;;;;;;13.68;5.35;;;;;;;12.39;84.12;102135.09;7356351;19;20041;-65
2023/06/01 03:31:50;;;;;;;13.73;5.95;;;;;;;12.39;84.12;102140.38;7353892;19;20011;-65
2023/06/01 03:34:19;;;;;;;10.73;5.00;;;;;;;12.44;84.27;102137.38;7353447;19;20022;-65
2023/06/01 03:36:47;;;;;;;11.15;5.07;;;;;;;12.52;82.98;102129.63;7356112;19;20026;-66
2023/06/01 03:39:15;;;;;;;13.20;4.82;;;;;;;12.51;83.32;102140.28;7355371;19;20018;-66
2023/06/01 03:41:45;;;;;;;14.20;5.07;;;;;;;12.55;83.23;102145.19;7355770;19;20007;-66
2023/06/01 03:44:12;;;;;;;10.05;4.50;;;;;;;12.59;83.21;102145.75;7358246;19;20050;-65
2023/06/01 03:46:40;;;;;;;15.90;7.00;;;;;;;12.58;82.20;102157.28;7353103;19;20010;-65
2023/06/01 03:49:07;;;;;;;14.15;6.47;;;;;;;12.43;82.78;102147.09;7354023;19;20009;-64
2023/06/01 03:51:35;;;;;;;12.10;6.70;;;;;;;12.47;82.92;102146.81;7355625;19;20038;-65
2023/06/01 03:54:03;;;;;;;12.73;6.72;;;;;;;12.49;82.88;102145.72;7356171;19;20025;-64
2023/06/01 03:56:30;;;;;;;15.65;5.72;;;;;;;12.49;82.88;102145.72;7355656;19;20029;-65
2023/06/01 03:58:58;;;;;;;8.93;5.05;;;;;;;12.47;82.65;102147.66;7354330;19;20018;-66
2023/06/01 04:01:28;;;;;;;9.02;5.63;;;;;;;12.39;83.13;102158.84;7350249;19;20011;-65
2023/06/01 04:03:56;;;;;;;13.45;5.75;;;;;;;12.42;83.18;102148.06;7354914;19;20069;-65
2023/06/01 04:06:24;;;;;;;11.90;6.22;;;;;;;12.41;83.24;102140.25;7355936;19;20052;-64
2023/06/01 04:08:55;;;;;;;14.88;6.13;;;;;;;12.37;82.82;102138.84;7355611;19;20014;-64
2023/06/01 04:11:22;;;;;;;9.30;5.22;;;;;;;12.33;82.99;102143.56;7354029;19;20434;-66
2023/06/01 04:13:50;;;;;;;10.88;4.90;;;;;;;12.35;83.08;102152.19;7357991;19;20021;-65
2023/06/01 04:16:17;;;;;;;12.98;6.25;;;;;;;12.37;83.04;102142.34;7353755;19;20018;-65
2023/06/01 04:18:45;;;;;;;12.15;5.50;;;;;;;12.44;82.61;102148.75;7352767;19;20021;-65
2023/06/01 04:21:12;;;;;;;13.63;6.13;;;;;;;12.49;82.60;102153.66;7354775;19;20275;-65
2023/06/01 04:23:42;;;;;;;13.30;5.68;;;;;;;12.44;82.32;102146.09;7355331;19;20015;-65
2023/06/01 04:26:09;;;;;;;11.82;5.95;;;;;;;12.47;82.57;102150.28;7353991;19;20469;-65
2023/06/01 04:28:43;;;;;;;12.50;6.30;;;;;;;12.51;82.60;102146.41;7355212;19;20515;-65
2023/06/01 04:31:16;;;;;;;14.43;6.78;;;;;;;12.58;82.22;102144.94;7351480;19;20014;-65
2023/06/01 04:33:45;;;;;;;14.38;6.50;;;;;;;12.58;83.22;102146.72;7354509;19;20018;-65
2023/06/01 04:36:13;;;;;;;14.05;7.45;;;;;;;12.60;82.93;102147.41;7356015;19;20014;-64
2023/06/01 04:38:41;;;;;;;12.98;6.25;;;;;;;12.67;82.03;102140.66;7353706;19;20015;-65
2023/06/01 04:41:09;;;;;;;12.30;6.20;;;;;;;12.67;81.87;102143.28;7355226;19;20030;-65
2023/06/01 04:43:39;;;;;;;11.95;6.63;;;;;;;12.69;82.11;102146.63;7353646;19;20046;-65
2023/06/01 04:46:07;;;;;;;13.43;6.47;;;;;;;12.67;81.78;102146.75;7353138;19;20637;-66
2023/06/01 04:48:36;;;;;;;14.23;5.43;;;;;;;12.67;81.84;102145.94;7332764;19;20018;-65
2023/06/01 04:51:04;;;;;;;14.70;5.70;;;;;;;12.66;82.20;102142.44;7345018;19;20006;-65
2023/06/01 04:53:32;;;;;;;15.70;5.35;;;;;;;12.69;82.06;102155.41;7347892;19;20042;-65
2023/06/01 04:55:59;;;;;;;11.98;5.45;;;;;;;12.68;82.42;102156.38;7347694;19;20021;-65
2023/06/01 04:58:26;;;;;;;10.48;4.68;;;;;;;12.70;82.17;102158.84;7348293;19;20967;-66
2023/06/01 05:00:54;;;;;;;12.45;6.47;;;;;;;12.76;83.44;102156.50;7347978;19;20007;-66
2023/06/01 05:03:21;;;;;;;12.27;5.63;;;;;;;12.75;82.02;102159.28;7347938;19;20213;-66
2023/06/01 05:05:48;;;;;;;14.32;5.43;;;;;;;12.69;81.81;102173.03;7352680;19;20044;-66
2023/06/01 05:08:15;;;;;;;11.00;4.85;;;;;;;12.59;81.89;102158.97;7349150;19;20026;-65
2023/06/01 05:10:42;;;;;;;11.75;5.18;;;;;;;12.43;82.57;102168.22;7349517;19;20030;-65
2023/06/01 05:13:10;;;;;;;8.73;4.70;;;;;;;12.44;83.31;102163.78;7347847;19;20018;-69
2023/06/01 05:15:37;;;;;;;13.63;4.95;;;;;;;12.43;83.73;102160.28;7348560;19;20014;-66
2023/06/01 05:18:04;;;;;;;12.68;4.65;;;;;;;12.47;83.09;102160.00;7345220;19;20014;-66
2023/06/01 05:20:32;;;;;;;13.82;5.43;;;;;;;12.39;83.21;102155.41;7340615;19;20019;-66
2023/06/01 05:22:59;;;;;;;12.52;4.40;;;;;;;12.27;83.69;102152.00;7346224;19;20076;-65
2023/06/01 05:25:26;;;;;;;12.10;4.68;;;;;;;12.34;84.12;102141.78;7349501;19;20015;-66
2023/06/01 05:27:53;;;;;;;13.25;4.50;;;;;;;12.37;84.30;102141.50;7342922;19;20365;-67
2023/06/01 05:30:20;;;;;;;10.75;4.28;;;;;;;12.43;83.89;102139.19;7345945;19;20356;-65
2023/06/01 05:32:48;;;;;;;14.48;4.40;;;;;;;12.47;83.97;102142.38;7348463;19;20502;-65
2023/06/01 05:35:15;;;;;;;12.13;4.63;;;;;;;12.55;83.27;102149.63;7350228;19;20342;-66
2023/06/01 05:37:43;;;;;;;9.35;4.45;;;;;;;12.59;83.05;102145.75;7350224;19;20033;-65
2023/06/01 05:40:16;;;;;;;11.82;4.53;;;;;;;12.59;82.52;102143.97;7347564;19;20011;-65
2023/06/01 05:42:43;;;;;;;7.88;3.55;;;;;;;12.59;81.99;102151.03;7351707;19;20018;-64
2023/06/01 05:45:11;;;;;;;9.50;3.58;;;;;;;12.53;81.87;102148.94;7356751;19;20034;-65
2023/06/01 05:47:38;;;;;;;12.38;3.75;;;;;;;12.54;82.04;102134.78;7356268;19;20014;-66
2023/06/01 05:50:06;;;;;;;8.73;3.67;;;;;;;12.52;82.60;102149.91;7356226;19;20564;-65
2023/06/01 05:52:33;;;;;;;9.32;3.20;;;;;;;12.55;83.07;102145.19;7360346;19;20019;-65
2023/06/01 05:55:00;;;;;;;12.10;3.80;;;;;;;12.55;82.69;102150.47;7359814;19;20018;-65
2023/06/01 05:57:27;;;;;;;10.55;3.90;;;;;;;12.65;84.75;102140.75;7359295;19;20014;-65
2023/06/01 05:59:55;;;;;;;7.78;3.22;;;;;;;12.61;82.14;102157.84;7357556;19;20523;-65
2023/06/01 06:02:22;;;;;;;12.02;3.75;;;;;;;12.66;81.68;102150.38;7357183;19;20130;-65
2023/06/01 06:04:49;;;;;;;6.05;2.95;;;;;;;12.61;80.41;102165.78;7357722;19;20010;-67
2023/06/01 06:07:16;;;;;;;10.02;3.72;;;;;;;12.57;80.81;102150.34;7359887;19;20082;-65
2023/06/01 06:09:44;;;;;;;10.80;3.70;;;;;;;12.49;80.80;102151.00;7358634;19;20014;-66
2023/06/01 06:12:11;;;;;;;10.35;3.83;;;;;;;12.52;81.42;102145.44;7357024;19;20026;-66
2023/06/01 06:14:38;;;;;;;10.32;4.75;;;;;;;12.53;81.61;102136.56;7358814;19;20029;-65
2023/06/01 06:17:08;;;;;;;12.70;4.68;;;;;;;12.61;81.56;102147.28;7354609;19;20689;-65
2023/06/01 06:19:35;;;;;;;10.82;4.25;;;;;;;12.64;81.78;102139.13;7356407;19;20010;-66
2023/06/01 06:22:03;;;;;;;8.70;4.00;;;;;;;12.66;80.97;102149.53;7358607;19;20018;-65
2023/06/01 06:24:30;;;;;;;8.32;3.20;;;;;;;12.58;80.68;102152.84;7358327;19;20032;-65
2023/06/01 06:26:57;;;;;;;8.88;2.92;;;;;;;12.47;81.62;102149.47;7359770;19;20002;-66
2023/06/01 06:29:25;;;;;;;9.88;2.88;;;;;;;12.53;81.47;102143.66;7358545;19;20022;-65
2023/06/01 06:31:52;;;;;;;7.72;2.80;;;;;;;12.53;81.69;102148.94;7354743;19;20033;-65
2023/06/01 06:34:19;;;;;;;7.40;3.03;;;;;;;12.57;80.43;102145.88;7357809;19;21172;-66
2023/06/01 06:36:47;;;;;;;5.35;2.22;;;;;;;12.59;80.66;102138.69;7358362;19;20014;-65
2023/06/01 06:39:15;;;;;;;8.05;2.65;;;;;;;12.64;81.45;102139.13;7357920;19;20026;-67
2023/06/01 06:41:42;;;;;;;7.82;3.15;;;;;;;12.71;80.29;102136.75;7357894;19;20709;-65
2023/06/01 06:44:10;;;;;;;9.43;2.75;;;;;;;12.73;80.63;102146.22;7359079;19;20024;-66
2023/06/01 06:46:37;;;;;;;8.05;3.65;;;;;;;12.66;80.25;102144.25;7355657;19;20025;-66
2023/06/01 06:49:05;;;;;;;7.97;2.92;;;;;;;12.70;80.45;102149.13;7355785;19;20018;-66
2023/06/01 06:51:32;;;;;;;8.68;2.75;;;;;;;12.69;80.74;102136.91;7356935;19;20039;-65
2023/06/01 06:54:02;;;;;;;6.38;2.45;;;;;;;12.71;81.20;102134.13;7354688;19;20019;-66
2023/06/01 06:56:29;;;;;;;6.50;2.63;;;;;;;12.82;80.86;102141.94;7357834;19;20369;-65
2023/06/01 06:58:57;;;;;;;6.70;2.83;;;;;;;12.87;79.55;102145.00;7356728;19;20025;-66
2023/06/01 07:01:35;;;;;;;9.00;2.90;;;;;;;12.84;79.43;102148.78;7352723;19;20083;-65
2023/06/01 07:04:07;;;;;;;;;;;;;;;12.75;79.63;102154.84;7356965;19;20082;-68
2023/06/01 07:06:34;;;;;;;6.95;2.83;;;;;;;12.66;79.97;102157.44;7357191;19;19932;-66
2023/06/01 07:09:05;;;;;;;5.65;2.00;;;;;;;12.66;80.39;102152.16;7353442;19;20023;-65
2023/06/01 07:11:32;;;;;;;7.70;2.60;;;;;;;12.68;79.61;102152.88;7353983;19;20138;-66
2023/06/01 07:13:59;;;;;;;9.48;3.17;;;;;;;12.66;79.88;102152.16;7355498;19;20030;-66
2023/06/01 07:16:29;;;;;;;4.90;2.42;;;;;;;12.74;80.22;102158.47;7351206;19;20082;-66
2023/06/01 07:18:56;;;;;;;5.75;2.80;;;;;;;12.69;79.90;102147.47;7356656;19;20846;-65
2023/06/01 07:21:24;;;;;;;7.63;2.47;;;;;;;12.73;80.19;102151.50;7385260;19;20471;-65
2023/06/01 07:23:51;;;;;;;6.30;2.80;;;;;;;12.81;79.99;102158.75;7377646;19;20010;-65
2023/06/01 07:26:19;;;;;;;9.70;3.15;;;;;;;12.88;79.63;102151.97;7353805;19;20483;-66
2023/06/01 07:28:51;;;;;;;8.43;3.47;;;;;;;12.93;80.20;102148.94;7356630;19;20345;-66
2023/06/01 07:31:18;;;;;;;5.90;2.70;;;;;;;13.01;79.48;102154.34;7354664;19;20138;-68
2023/06/01 07:33:46;;;;;;;7.82;2.72;;;;;;;13.07;77.90;102154.66;7354692;19;20073;-66
2023/06/01 07:36:14;;;;;;;10.13;2.42;;;;;;;12.96;78.32;102164.50;7357191;19;20475;-65
2023/06/01 07:38:44;;;;;;;7.25;3.00;;;;;;;12.99;78.60;102158.97;7355492;19;20023;-66
2023/06/01 07:41:11;;;;;;;8.68;2.78;;;;;;;12.99;78.79;102159.78;7353785;19;20510;-65
2023/06/01 07:43:39;;;;;;;8.20;2.75;;;;;;;12.92;78.77;102168.38;7351947;19;20006;-65
2023/06/01 07:46:06;;;;;;;9.77;2.70;;;;;;;12.97;79.37;102160.88;7354479;19;20348;-66
2023/06/01 07:48:36;;;;;;;9.57;3.92;;;;;;;12.99;79.50;102161.59;7351960;19;20109;-65
2023/06/01 07:51:04;;;;;;;8.77;2.92;;;;;;;13.06;79.40;102158.25;7357302;19;20060;-66
2023/06/01 07:53:32;;;;;;;9.45;3.00;;;;;;;13.16;78.29;102166.25;7358899;19;20046;-65
2023/06/01 07:55:59;;;;;;;8.95;3.80;;;;;;;13.24;78.56;102154.03;7358896;19;20014;-66
2023/06/01 07:58:27;;;;;;;7.88;2.67;;;;;;;13.28;78.42;102152.78;7355923;19;20063;-67
2023/06/01 08:00:55;;;;;;;12.38;3.45;;;;;;;13.30;77.13;102152.66;7352152;19;20019;-66
2023/06/01 08:03:25;;;;;;;7.75;2.88;;;;;;;13.35;76.98;102158.38;7355749;19;20027;-67
2023/06/01 08:05:57;;;;;;;9.35;2.47;;;;;;;13.36;77.30;102156.56;7357293;19;20018;-66
2023/06/01 08:08:25;;;;;;;8.88;3.20;;;;;;;13.42;77.21;102158.63;7359159;19;20010;-66
2023/06/01 08:10:52;;;;;;;6.78;3.05;;;;;;;13.49;76.59;102162.41;7355679;19;20483;-65
2023/06/01 08:13:20;;;;;;;10.20;3.15;;;;;;;13.46;75.95;102173.25;7354203;19;20051;-66
2023/06/01 08:15:48;;;;;;;9.07;2.60;;;;;;;13.49;75.78;102162.41;7353689;19;20025;-66
2023/06/01 08:18:15;;;;;;;12.20;2.92;;;;;;;13.37;76.34;102166.13;7352204;19;20035;-64
2023/06/01 08:20:44;;;;;;;11.35;3.25;;;;;;;13.38;76.56;102155.44;7353355;19;20541;-66
2023/06/01 08:23:11;;;;;;;8.07;2.80;;;;;;;13.27;77.10;102156.38;7354800;19;20021;-67
2023/06/01 08:25:40;;;;;;;9.07;2.90;;;;;;;13.32;76.83;102160.41;7355278;19;20021;-66
2023/06/01 08:28:07;;;;;;;8.85;3.10;;;;;;;13.26;77.01;102160.00;7355591;19;20066;-66
2023/06/01 08:30:35;;;;;;;13.63;3.17;;;;;;;13.22;77.30;102160.41;7351694;19;20014;-67
2023/06/01 08:33:02;;;;;;;7.18;2.75;;;;;;;13.31;77.28;102166.72;7352061;19;20410;-65
2023/06/01 08:35:33;;;;;;;9.18;3.25;;;;;;;13.36;76.80;102159.19;7355234;19;20086;-67
2023/06/01 08:38:01;;;;;;;10.18;2.70;;;;;;;13.39;76.67;102154.47;7354322;19;20046;-66
2023/06/01 08:40:32;;;;;;;6.80;2.88;;;;;;;13.47;76.49;102165.16;7353234;19;20018;-65
2023/06/01 08:43:06;;;;;;;9.10;3.35;;;;;;;13.45;76.44;102163.66;7352900;19;20245;-66
2023/06/01 08:45:33;;;;;;;9.23;2.65;;;;;;;13.50;76.88;102167.56;7351604;19;20023;-65
2023/06/01 08:48:02;;;;;;;9.07;3.03;;;;;;;13.57;75.73;102165.16;7351152;19;20014;-67
2023/06/01 08:50:29;;;;;;;6.95;3.20;;;;;;;13.61;75.64;102166.59;7353713;19;20046;-66
2023/06/01 08:52:59;;;;;;;7.18;3.08;;;;;;;13.67;75.80;102180.06;7357075;19;20011;-65
2023/06/01 08:55:27;;;;;;;8.02;2.88;;;;;;;13.71;75.61;102168.22;7356280;19;21790;-65
2023/06/01 08:57:55;;;;;;;8.30;2.72;;;;;;;13.81;75.08;102157.66;7354939;19;20019;-65
2023/06/01 09:00:25;;;;;;;8.93;2.83;;;;;;;13.86;75.02;102160.72;7352474;19;20022;-65
2023/06/01 09:02:53;;;;;;;7.55;2.53;;;;;;;13.91;74.42;102161.13;7355259;19;20018;-66
2023/06/01 09:05:21;;;;;;;13.40;3.42;;;;;;;13.94;74.20;102160.84;7355941;19;20015;-66
2023/06/01 09:07:49;;;;;;;7.72;3.00;;;;;;;13.91;74.60;102162.94;7356128;19;20025;-66
2023/06/01 09:10:24;;;;;;;6.95;2.42;;;;;;;13.97;74.12;102159.69;7353340;19;20300;-66
2023/06/01 09:12:53;;;;;;;7.82;3.45;;;;;;;14.00;73.99;102151.50;7355669;19;20081;-66
2023/06/01 09:15:22;;;;;;;9.20;2.60;;;;;;;14.04;74.98;102148.44;7353802;19;20015;-66
2023/06/01 09:17:51;;;;;;;8.80;2.55;;;;;;;14.09;74.52;102153.28;7354684;19;20010;-66
2023/06/01 09:20:29;;;;;;;5.03;2.30;;;;;;;14.21;73.61;102154.81;7361643;19;20024;-67
2023/06/01 09:22:56;;;;;;;9.60;2.70;;;;;;;14.28;73.41;102160.34;7362194;19;20050;-66
2023/06/01 09:25:26;;;;;;;8.05;2.88;;;;;;;14.29;73.22;102160.19;7361985;19;20495;-67
2023/06/01 09:27:56;;;;;;;8.60;2.83;;;;;;;14.28;73.44;102155.88;7363888;19;20408;-65
2023/06/01 09:30:36;;;;;;;8.20;2.60;;;;;;;14.19;73.15;102158.56;7361538;19;20497;-66
2023/06/01 09:33:13;;;;;;;8.10;2.80;;;;;;;14.23;73.15;102155.47;7359696;19;20010;-65
2023/06/01 09:35:44;;;;;;;5.50;2.10;;;;;;;14.28;72.98;102150.59;7353876;19;20011;-65
2023/06/01 09:38:24;;;;;;;6.22;2.45;;;;;;;14.36;72.11;102145.44;7362810;19;20018;-65
2023/06/01 09:41:02;;;;;;;6.15;2.70;;;;;;;14.42;72.22;102154.63;7360417;19;20043;-65
2023/06/01 09:43:37;;;;;;;10.43;3.03;;;;;;;14.45;71.91;102155.16;7360703;19;20018;-67
2023/06/01 09:46:10;;;;;;;5.78;2.88;;;;;;;14.50;71.83;102154.72;7360545;19;20006;-66
2023/06/01 09:48:38;;;;;;;6.10;2.45;;;;;;;14.48;71.55;102161.97;7358712;19;20010;-66
2023/06/01 09:51:22;;;;;;;7.13;2.35;;;;;;;14.51;71.11;102154.59;7364275;19;20018;-67
2023/06/01 09:53:50;;;;;;;9.27;3.40;;;;;;;14.40;71.39;102157.41;7363761;19;20028;-66
2023/06/01 09:56:17;;;;;;;9.43;2.53;;;;;;;14.51;71.20;102159.06;7363285;19;20109;-68
2023/06/01 09:58:45;;;;;;;8.65;2.72;;;;;;;14.60;72.08;102152.88;7359483;19;20126;-66
2023/06/01 10:01:15;;;;;;;10.35;2.70;;;;;;;14.66;71.77;102144.34;7357719;19;20014;-66
2023/06/01 10:03:46;;;;;;;11.80;2.67;;;;;;;14.79;71.01;102147.47;7355123;19;20010;-64
2023/06/01 10:06:15;;;;;;;8.15;2.35;;;;;;;14.89;70.30;102132.34;7357894;19;20019;-66
2023/06/01 10:08:43;;;;;;;5.15;2.20;;;;;;;14.97;69.97;102137.75;7361104;19;20793;-65
2023/06/01 10:11:12;;;;;;;6.07;2.50;;;;;;;15.09;69.52;102132.22;7361586;19;20078;-67
2023/06/01 10:13:41;;;;;;;9.98;2.50;;;;;;;15.14;69.48;102137.91;7359593;19;20307;-66
2023/06/01 10:16:12;;;;;;;6.90;2.50;;;;;;;15.16;69.66;102141.25;7357021;19;20986;-66
2023/06/01 10:18:41;;;;;;;11.52;3.38;;;;;;;15.17;69.80;102141.13;7360982;19;20386;-66
2023/06/01 10:21:09;;;;;;;6.32;2.70;;;;;;;15.22;69.16;102146.81;7356912;19;20485;-65
2023/06/01 10:23:37;;;;;;;4.10;2.20;;;;;;;15.20;69.25;102151.41;7360789;19;20015;-66
2023/06/01 10:26:12;;;;;;;6.35;2.58;;;;;;;15.24;69.50;102143.97;7361004;19;20609;-65
2023/06/01 10:28:41;;;;;;;6.15;2.50;;;;;;;15.35;68.87;102152.56;7360788;19;20042;-66
2023/06/01 10:31:30;;;;;;;5.28;2.35;;;;;;;15.19;68.83;102147.09;7360598;19;20019;-66
2023/06/01 10:33:58;;;;;;;5.85;2.40;;;;;;;15.14;69.40;102140.56;7361007;19;20054;-66
2023/06/01 10:36:53;;;;;;;7.45;2.22;;;;;;;15.16;69.61;102142.09;7362034;19;20018;-66
2023/06/01 10:39:29;;;;;;;10.65;2.47;;;;;;;15.19;69.53;102146.25;7357302;19;20114;-67
2023/06/01 10:42:18;;;;;;;6.10;2.42;;;;;;;15.24;69.40;102149.28;7356373;19;20020;-65
2023/06/01 10:44:47;;;;;;;18.73;3.33;;;;;;;15.27;69.35;102136.56;7362312;19;20081;-66
2023/06/01 10:47:22;;;;;;;7.93;2.92;;;;;;;15.37;69.20;102139.16;7354952;19;20022;-66
2023/06/01 10:49:50;;;;;;;7.32;2.95;;;;;;;15.45;69.14;102131.25;7357116;19;20353;-67
2023/06/01 10:52:38;;;;;;;6.45;2.92;;;;;;;15.55;69.02;102128.56;7357988;19;20051;-66
2023/06/01 10:55:07;;;;;;;5.30;2.88;;;;;;;15.63;68.80;102142.75;7360262;19;20442;-67
2023/06/01 10:57:35;;;;;;;7.47;2.70;;;;;;;15.77;68.20;102141.34;7358136;19;20022;-66
2023/06/01 11:00:13;;;;;;;5.95;2.83;;;;;;;15.76;67.54;102132.56;7358268;19;20042;-66
2023/06/01 11:02:48;;;;;;;7.80;2.47;;;;;;;15.79;67.02;102134.91;7357245;19;20110;-67
2023/06/01 11:05:36;;;;;;;7.78;2.80;;;;;;;15.93;66.28;102138.00;7356590;19;20091;-66
2023/06/01 11:08:09;;;;;;;6.85;2.55;;;;;;;15.92;66.58;102134.50;7354620;19;20014;-66
2023/06/01 11:10:56;;;;;;;7.22;2.50;;;;;;;15.96;66.67;102141.16;7359062;19;20653;-66
2023/06/01 11:13:29;;;;;;;6.40;3.05;;;;;;;15.88;66.65;102134.97;7359331;19;20017;-65
2023/06/01 11:16:26;;;;;;;8.65;2.53;;;;;;;15.91;67.04;102150.56;7354753;19;20019;-66
2023/06/01 11:18:58;;;;;;;8.48;2.83;;;;;;;15.81;67.27;102140.06;7355513;19;20015;-68
2023/06/01 11:21:33;;;;;;;10.18;2.75;;;;;;;15.77;67.51;102134.22;7354861;19;20030;-66
2023/06/01 11:24:05;;;;;;;7.25;2.88;;;;;;;15.77;67.89;102126.25;7358558;19;20023;-67
2023/06/01 11:26:38;;;;;;;7.13;2.95;;;;;;;15.89;67.08;102136.63;7358329;19;20486;-66
2023/06/01 11:29:11;;;;;;;10.73;3.33;;;;;;;15.94;66.82;102144.97;7356566;19;20022;-66
2023/06/01 11:31:43;;;;;;;8.18;3.25;;;;;;;15.91;66.90;102132.81;7356429;19;20018;-66
2023/06/01 11:34:13;;;;;;;7.67;3.00;;;;;;;15.95;66.67;102134.16;7356754;19;20097;-67
2023/06/01 11:36:43;;;;;;;5.95;2.58;;;;;;;15.99;66.57;102130.25;7358545;19;20797;-66